createdAt,value
2022-11-09T00:03:45.371Z,11.50
2022-11-09T00:07:47.423Z,11.40
2022-11-09T00:11:49.295Z,11.30
2022-11-09T00:15:51.078Z,11.30
2022-11-09T00:19:52.906Z,11.30
2022-11-09T00:23:54.817Z,11.20
2022-11-09T00:27:56.642Z,11.20
2022-11-09T00:31:58.458Z,11.10
2022-11-09T00:36:07.492Z,11.10
2022-11-09T00:40:10.693Z,10.90
2022-11-09T00:44:12.672Z,10.90
2022-11-09T00:48:14.653Z,10.80
2022-11-09T00:52:16.513Z,10.70
2022-11-09T00:56:18.338Z,10.70
2022-11-09T01:00:22.336Z,10.60
2022-11-09T01:04:24.149Z,10.60
2022-11-09T01:08:26.126Z,10.50
2022-11-09T01:12:27.971Z,10.50
2022-11-09T01:16:29.912Z,10.40
2022-11-09T01:20:31.819Z,10.30
2022-11-09T01:24:33.655Z,10.30
2022-11-09T01:28:35.678Z,10.30
2022-11-09T01:32:37.544Z,10.30
2022-11-09T01:36:39.403Z,10.20
2022-11-09T01:40:41.458Z,10.20
2022-11-09T01:44:43.323Z,10.20
2022-11-09T01:48:57.778Z,10.20
2022-11-09T01:52:59.614Z,10.20
2022-11-09T01:57:10.441Z,10.10
2022-11-09T02:01:13.178Z,10.10
2022-11-09T02:05:17.369Z,10.10
2022-11-09T02:09:39.125Z,10.10
2022-11-09T02:13:49.432Z,10.10
2022-11-09T02:17:53.747Z,10.10
2022-11-09T02:21:55.534Z,10.10
2022-11-09T02:26:09.543Z,10.20
2022-11-09T02:30:12.272Z,10.20
2022-11-09T02:34:17.189Z,10.20
2022-11-09T02:38:18.994Z,10.20
2022-11-09T02:42:21.817Z,10.10
2022-11-09T02:46:35.378Z,10.20
2022-11-09T02:50:37.217Z,10.10
2022-11-09T02:54:38.981Z,10.10
2022-11-09T02:58:40.842Z,10.00
2022-11-09T03:02:42.650Z,10.00
2022-11-09T03:06:51.554Z,10.00
2022-11-09T03:10:53.573Z,10.00
2022-11-09T03:15:13.431Z,10.00
2022-11-09T03:19:22.422Z,9.90
2022-11-09T03:23:24.272Z,9.90
2022-11-09T03:27:26.153Z,9.80
2022-11-09T03:31:28.140Z,9.80
2022-11-09T03:35:30.128Z,9.90
2022-11-09T03:39:32.064Z,10.00
2022-11-09T03:43:33.881Z,9.90
2022-11-09T03:47:35.797Z,9.90
2022-11-09T03:51:40.337Z,9.80
2022-11-09T03:56:07.616Z,9.70
2022-11-09T04:00:10.353Z,9.70
2022-11-09T04:04:12.220Z,9.70
2022-11-09T04:08:14.130Z,9.80
2022-11-09T04:12:15.944Z,9.70
2022-11-09T04:16:20.869Z,9.70
2022-11-09T04:20:23.408Z,9.70
2022-11-09T04:24:25.318Z,9.70
2022-11-09T04:28:27.293Z,9.60
2022-11-09T04:32:29.156Z,9.60
2022-11-09T04:36:31.278Z,9.60
2022-11-09T04:40:34.605Z,9.70
2022-11-09T04:44:36.471Z,9.70
2022-11-09T04:48:38.422Z,9.70
2022-11-09T04:52:40.335Z,9.80
2022-11-09T04:56:42.237Z,9.80
2022-11-09T05:00:44.144Z,9.90
2022-11-09T05:04:49.049Z,9.90
2022-11-09T05:08:51.195Z,9.90
2022-11-09T05:13:07.610Z,9.90
2022-11-09T05:17:25.974Z,9.90
2022-11-09T05:23:29.813Z,9.90
2022-11-09T05:39:05.925Z,10.00
2022-11-09T05:43:38.034Z,10.10
2022-11-09T05:48:56.867Z,10.10
2022-11-09T05:53:25.304Z,10.10
2022-11-09T05:57:33.004Z,10.10
2022-11-09T06:12:23.242Z,10.10
2022-11-09T06:16:25.536Z,10.20
2022-11-09T06:20:31.846Z,10.10
2022-11-09T06:25:11.418Z,10.10
2022-11-09T06:29:24.964Z,10.10
2022-11-09T06:34:25.577Z,10.10
2022-11-09T06:38:50.906Z,10.10
2022-11-09T06:43:08.258Z,10.10
2022-11-09T07:02:34.384Z,10.30
2022-11-09T07:07:15.787Z,10.30
2022-11-09T07:11:33.274Z,10.40
2022-11-09T07:15:36.267Z,10.50
2022-11-09T07:19:49.807Z,10.50
2022-11-09T07:25:17.293Z,10.50
2022-11-09T07:52:44.650Z,11.30
2022-11-09T07:57:38.119Z,11.30
2022-11-09T13:07:35.052Z,12.80
2022-11-09T13:11:51.765Z,13.00
2022-11-09T13:16:38.906Z,13.00
2022-11-09T13:21:20.684Z,13.10
2022-11-09T13:43:00.418Z,12.90
2022-11-09T14:20:24.010Z,12.20
2022-11-09T14:56:50.079Z,11.60
2022-11-09T15:02:02.768Z,11.50
2022-11-09T15:06:19.529Z,11.40
2022-11-09T15:21:18.510Z,11.10
2022-11-09T15:30:59.539Z,10.90
2022-11-09T15:35:14.271Z,10.80
2022-11-09T16:13:23.746Z,10.70
2022-11-09T16:17:35.046Z,10.80
2022-11-09T16:21:37.016Z,10.80
2022-11-09T16:25:39.341Z,10.90
2022-11-09T17:04:28.069Z,10.70
2022-11-09T17:14:20.719Z,10.70
2022-11-09T17:18:22.935Z,10.60
2022-11-09T17:22:34.176Z,10.60
2022-11-09T17:26:37.677Z,10.60
2022-11-09T17:30:40.877Z,10.60
2022-11-09T17:34:42.852Z,10.60
2022-11-09T17:38:45.025Z,10.60
2022-11-09T17:42:47.363Z,10.60
2022-11-09T17:46:49.400Z,10.60
2022-11-09T17:50:56.429Z,10.70
2022-11-09T17:54:58.344Z,10.70
2022-11-09T17:59:18.148Z,10.70
2022-11-09T18:03:20.375Z,10.70
2022-11-09T18:07:30.335Z,10.70
2022-11-09T18:11:36.454Z,10.70
2022-11-09T18:15:39.162Z,10.80
2022-11-09T18:19:44.164Z,10.80
2022-11-09T18:23:50.725Z,10.80
2022-11-09T18:49:30.682Z,11.00
2022-11-09T18:54:11.191Z,11.00
2022-11-09T18:58:35.042Z,11.10
2022-11-09T19:02:39.976Z,11.20
2022-11-09T19:17:12.363Z,11.20
2022-11-09T19:30:31.434Z,11.30
2022-11-09T19:34:41.569Z,11.30
2022-11-09T19:39:12.158Z,11.30
2022-11-09T19:47:57.125Z,11.40
2022-11-09T19:52:01.276Z,11.40
2022-11-09T19:56:08.680Z,11.40
2022-11-09T22:30:46.735Z,12.20
2022-11-09T22:34:48.778Z,12.50
2022-11-09T22:38:51.145Z,12.50
2022-11-09T22:42:56.779Z,12.50
2022-11-09T22:46:58.857Z,12.60
2022-11-09T22:51:03.645Z,12.60
2022-11-09T22:55:06.129Z,12.60
2022-11-09T22:59:08.349Z,12.60
2022-11-09T23:03:10.270Z,12.60
2022-11-09T23:07:12.198Z,12.60
2022-11-09T23:11:20.724Z,12.60
2022-11-09T23:15:22.871Z,12.60
2022-11-09T23:19:24.790Z,12.60
2022-11-09T23:23:26.838Z,12.50
2022-11-09T23:27:28.723Z,12.40
2022-11-09T23:31:30.737Z,12.20
2022-11-09T23:35:32.952Z,12.20
2022-11-09T23:39:34.783Z,12.20
2022-11-09T23:43:39.078Z,12.20
2022-11-09T23:47:41.041Z,12.20
2022-11-09T23:51:42.937Z,12.30
2022-11-09T23:55:45.404Z,12.30
2022-11-09T23:59:47.384Z,12.30
